Fort Mill, South Carolina
Current Conditions -  °F | °C
As of 7:54 PM on Tuesday 25 Nov 2014 (Local Time) from KUZA Reporting Station
Light Rain Light Rain  
Wind Chill: 53°   Ceiling: 7500
Heat Index: 53°   Visibility: 10mi
Dew Point: 45°   Wind: 3mph
Humidity: 74%   Direction: 30°NNE
Pressure: 30.06"   Gusts: NA
Location:  35.01°N, 80.94°W
Report Text: KUZA 260054Z AUTO 03003KT 10SM -RA OVC075 12/07 A3006 RMK AO2 SLP177 P0001 T01170072
Loading
Personal Weather Stations






























Interactive Weather Map New forecast layout! Learn more

10-Day Weather Forecast

Advertisements
Track Severe Weather on mobile